createdAt,value
2018-08-03T00:00:14.601Z,0.00
2018-08-03T00:01:14.633Z,0.00
2018-08-03T00:02:14.667Z,0.00
2018-08-03T00:03:14.850Z,0.00
2018-08-03T00:04:14.732Z,0.00
2018-08-03T00:05:14.766Z,0.00
2018-08-03T00:06:14.796Z,0.00
2018-08-03T00:07:14.831Z,0.00
2018-08-03T00:08:14.862Z,0.00
2018-08-03T00:09:14.895Z,0.00
2018-08-03T00:10:14.934Z,0.00
2018-08-03T00:11:14.962Z,0.00
2018-08-03T00:12:14.995Z,0.00
2018-08-03T00:13:15.031Z,0.00
2018-08-03T00:14:15.061Z,0.00
2018-08-03T00:15:15.092Z,0.00
2018-08-03T00:16:15.129Z,0.00
2018-08-03T00:17:15.165Z,0.00
2018-08-03T00:18:15.193Z,0.00
2018-08-03T00:19:15.227Z,0.00
2018-08-03T00:20:15.261Z,0.00
2018-08-03T00:21:15.295Z,0.00
2018-08-03T00:22:15.325Z,0.00
2018-08-03T00:23:15.359Z,0.00
2018-08-03T00:24:15.392Z,0.00
2018-08-03T00:25:15.424Z,0.00
2018-08-03T00:26:15.461Z,0.00
2018-08-03T00:27:15.490Z,0.00
2018-08-03T00:28:15.526Z,0.00
2018-08-03T00:29:15.554Z,0.00
2018-08-03T00:30:15.590Z,0.00
2018-08-03T00:31:15.626Z,0.00
2018-08-03T00:32:15.656Z,0.00
2018-08-03T00:33:15.687Z,0.00
2018-08-03T00:34:15.719Z,0.00
2018-08-03T00:35:15.751Z,0.00
2018-08-03T00:36:15.788Z,0.00
2018-08-03T00:37:15.818Z,0.00
2018-08-03T00:38:15.857Z,0.00
2018-08-03T00:39:15.885Z,0.00
2018-08-03T00:40:15.918Z,0.00
2018-08-03T00:41:15.952Z,0.00
2018-08-03T00:42:15.985Z,0.00
2018-08-03T00:43:16.018Z,0.00
2018-08-03T00:44:16.050Z,0.00
2018-08-03T00:45:16.081Z,0.00
2018-08-03T00:46:16.116Z,0.00
2018-08-03T00:47:16.146Z,0.00
2018-08-03T00:48:16.179Z,0.00
2018-08-03T00:49:16.215Z,0.00
2018-08-03T00:50:16.245Z,0.00
2018-08-03T00:51:16.280Z,0.00
2018-08-03T00:52:16.313Z,0.00
2018-08-03T00:53:16.346Z,0.00
2018-08-03T00:54:16.376Z,0.00
2018-08-03T00:55:16.411Z,0.00
2018-08-03T00:56:16.445Z,0.00
2018-08-03T00:57:16.478Z,0.00
2018-08-03T00:58:16.512Z,0.00
2018-08-03T00:59:16.539Z,0.00
2018-08-03T01:00:16.574Z,0.00
2018-08-03T01:01:16.609Z,0.00
2018-08-03T01:02:16.642Z,0.00
2018-08-03T01:03:16.670Z,0.00
2018-08-03T01:04:16.703Z,0.00
2018-08-03T01:05:16.735Z,0.00
2018-08-03T01:06:16.769Z,0.00
2018-08-03T01:07:16.806Z,0.00
2018-08-03T01:08:16.835Z,0.00
2018-08-03T01:09:16.866Z,0.00
2018-08-03T01:10:16.905Z,0.00
2018-08-03T01:11:16.934Z,0.00
2018-08-03T01:12:16.965Z,0.00
2018-08-03T01:13:17.001Z,0.00
2018-08-03T01:14:17.049Z,0.00
2018-08-03T01:15:17.068Z,0.00
2018-08-03T01:16:17.098Z,0.00
2018-08-03T01:17:17.132Z,0.00
2018-08-03T01:18:17.161Z,0.00
2018-08-03T01:19:17.195Z,0.00
2018-08-03T01:20:17.229Z,0.00
2018-08-03T01:21:17.259Z,0.00
2018-08-03T01:22:17.292Z,0.00
2018-08-03T01:23:17.329Z,0.00
2018-08-03T01:24:17.357Z,0.00
2018-08-03T01:25:17.389Z,0.00
2018-08-03T01:26:17.424Z,0.00
2018-08-03T01:27:17.453Z,0.00
2018-08-03T01:28:17.489Z,0.00
2018-08-03T01:29:17.519Z,0.00
2018-08-03T01:30:17.555Z,0.00
2018-08-03T01:31:17.589Z,0.00
2018-08-03T01:32:17.617Z,0.00
2018-08-03T01:33:17.649Z,0.00
2018-08-03T01:34:17.682Z,0.00
2018-08-03T01:35:17.714Z,0.00
2018-08-03T01:36:17.747Z,0.00
2018-08-03T01:37:17.782Z,0.00
2018-08-03T01:38:17.815Z,0.00
2018-08-03T01:39:17.844Z,0.00
2018-08-03T01:40:17.880Z,0.00
2018-08-03T01:41:17.910Z,0.00
2018-08-03T01:42:17.946Z,0.00
2018-08-03T01:43:17.976Z,0.00
2018-08-03T01:44:18.009Z,0.00
2018-08-03T01:45:18.043Z,0.00
2018-08-03T01:46:18.078Z,0.00
2018-08-03T01:47:18.106Z,0.00
2018-08-03T01:48:18.137Z,0.00
2018-08-03T01:49:18.170Z,0.00
2018-08-03T01:50:18.205Z,0.00
2018-08-03T01:51:18.235Z,0.00
2018-08-03T01:52:18.271Z,0.00
2018-08-03T01:53:18.302Z,0.00
2018-08-03T01:54:18.333Z,0.00
2018-08-03T01:55:18.365Z,0.00
2018-08-03T01:56:18.403Z,0.00
2018-08-03T01:57:18.433Z,0.00
2018-08-03T01:58:18.469Z,0.00
2018-08-03T01:59:18.495Z,0.00
2018-08-03T02:00:18.532Z,0.00
2018-08-03T02:01:18.562Z,0.00
2018-08-03T02:02:18.595Z,0.00
2018-08-03T02:03:18.675Z,0.00
2018-08-03T02:04:18.659Z,0.00
2018-08-03T02:05:18.690Z,0.00
2018-08-03T02:06:18.727Z,0.00
2018-08-03T02:07:18.755Z,0.00
2018-08-03T02:08:18.791Z,0.00
2018-08-03T02:09:18.823Z,0.00
2018-08-03T02:10:18.857Z,0.00
2018-08-03T02:11:18.885Z,0.00
2018-08-03T02:12:18.920Z,0.00
2018-08-03T02:13:18.950Z,0.00
2018-08-03T02:14:18.982Z,0.00
2018-08-03T02:15:19.014Z,0.00
2018-08-03T02:16:19.048Z,0.00
2018-08-03T02:17:19.097Z,0.00
2018-08-03T02:18:19.113Z,0.00
2018-08-03T02:19:19.149Z,0.00
2018-08-03T02:20:19.180Z,0.00
2018-08-03T02:21:19.212Z,0.00
2018-08-03T02:22:19.244Z,0.00
2018-08-03T02:23:19.276Z,0.00
2018-08-03T02:24:19.306Z,0.00
2018-08-03T02:25:19.339Z,0.00
2018-08-03T02:26:19.375Z,0.00
2018-08-03T02:27:19.407Z,0.00
2018-08-03T02:28:19.436Z,0.00
2018-08-03T02:29:19.469Z,0.00
2018-08-03T02:30:19.502Z,0.00
2018-08-03T02:31:19.535Z,0.00
2018-08-03T02:32:19.566Z,0.00
2018-08-03T02:33:19.600Z,0.00
2018-08-03T02:34:19.634Z,0.00
2018-08-03T02:35:19.662Z,0.00
2018-08-03T02:36:19.696Z,0.00
2018-08-03T02:37:19.730Z,0.00
2018-08-03T02:38:19.760Z,0.00
2018-08-03T02:39:19.795Z,0.00
2018-08-03T02:40:19.860Z,0.00
2018-08-03T02:41:19.860Z,0.00
2018-08-03T02:42:19.890Z,0.00
2018-08-03T02:43:19.925Z,0.00
2018-08-03T02:44:19.957Z,0.00
2018-08-03T02:45:19.987Z,0.00
2018-08-03T02:46:20.026Z,0.00
2018-08-03T02:47:20.051Z,0.00
2018-08-03T02:48:20.086Z,0.00
2018-08-03T02:49:20.116Z,0.00
2018-08-03T02:50:20.147Z,0.00
2018-08-03T02:51:20.183Z,0.00
2018-08-03T02:52:20.216Z,0.00
2018-08-03T02:53:20.247Z,0.00
2018-08-03T02:54:20.281Z,0.00
2018-08-03T02:55:20.313Z,0.00
2018-08-03T02:56:20.346Z,0.00
2018-08-03T02:57:20.374Z,0.00
2018-08-03T02:58:20.407Z,0.00
2018-08-03T02:59:20.439Z,0.00
2018-08-03T03:00:20.475Z,0.00
2018-08-03T03:01:20.504Z,0.00
2018-08-03T03:02:20.536Z,0.00
2018-08-03T03:03:20.568Z,0.00
2018-08-03T03:04:20.601Z,0.00
2018-08-03T03:05:20.632Z,0.00
2018-08-03T03:06:20.660Z,0.00
2018-08-03T03:07:20.718Z,0.00
2018-08-03T03:08:20.715Z,0.00
2018-08-03T03:09:20.741Z,0.00
2018-08-03T03:10:20.773Z,0.00
2018-08-03T03:11:20.797Z,0.00
2018-08-03T03:12:20.823Z,0.00
2018-08-03T03:13:20.854Z,0.00
2018-08-03T03:14:20.880Z,4.00
2018-08-03T03:15:20.905Z,4.00
2018-08-03T03:16:20.937Z,4.00
2018-08-03T03:17:20.960Z,0.00
2018-08-03T03:18:20.993Z,0.00
2018-08-03T03:19:21.034Z,4.00
2018-08-03T03:20:21.044Z,4.00
2018-08-03T03:21:21.072Z,4.00
2018-08-03T03:22:21.103Z,4.00
2018-08-03T03:23:21.127Z,4.00
2018-08-03T03:24:21.155Z,8.00
2018-08-03T03:25:21.180Z,8.00
2018-08-03T03:26:21.208Z,8.00
2018-08-03T03:27:21.252Z,8.00
2018-08-03T03:28:21.261Z,12.00
2018-08-03T03:29:21.289Z,12.00
2018-08-03T03:30:21.323Z,16.00
2018-08-03T03:31:21.345Z,16.00
2018-08-03T03:32:21.373Z,20.00
2018-08-03T03:33:21.429Z,24.00
2018-08-03T03:34:21.427Z,28.00
2018-08-03T03:35:21.453Z,32.00
2018-08-03T03:36:21.481Z,36.00
2018-08-03T03:37:21.507Z,40.00
2018-08-03T03:38:21.537Z,44.00
2018-08-03T03:39:21.560Z,52.00
2018-08-03T03:40:21.588Z,60.00
2018-08-03T03:41:21.615Z,64.00
2018-08-03T03:42:21.646Z,76.00
2018-08-03T03:43:21.669Z,84.00
2018-08-03T03:44:21.700Z,88.00
2018-08-03T03:45:21.727Z,100.00
2018-08-03T03:46:21.754Z,112.00
2018-08-03T03:47:21.782Z,124.00
2018-08-03T03:48:21.811Z,136.00
2018-08-03T03:49:21.834Z,152.00
2018-08-03T03:50:21.860Z,164.00
2018-08-03T03:51:21.887Z,176.00
2018-08-03T03:52:21.917Z,196.00
2018-08-03T03:53:21.944Z,208.00
2018-08-03T03:54:21.971Z,228.00
2018-08-03T03:55:21.996Z,244.00
2018-08-03T03:56:22.029Z,264.00
2018-08-03T03:57:22.049Z,284.00
2018-08-03T03:58:22.077Z,308.00
2018-08-03T03:59:22.145Z,328.00
2018-08-03T04:00:22.133Z,352.00
2018-08-03T04:01:22.160Z,372.00
2018-08-03T04:02:22.187Z,396.00
2018-08-03T04:03:22.212Z,424.00
2018-08-03T04:04:22.247Z,448.00
2018-08-03T04:05:22.269Z,476.00
2018-08-03T04:06:22.296Z,504.00
2018-08-03T04:07:22.320Z,532.00
2018-08-03T04:08:22.346Z,564.00
2018-08-03T04:09:22.372Z,596.00
2018-08-03T04:10:22.403Z,628.00
2018-08-03T04:11:22.431Z,660.00
2018-08-03T04:12:22.528Z,692.00
2018-08-03T04:13:22.487Z,728.00
2018-08-03T04:14:22.511Z,764.00
2018-08-03T04:15:22.538Z,800.00
2018-08-03T04:16:22.564Z,840.00
2018-08-03T04:17:22.591Z,876.00
2018-08-03T04:18:22.616Z,912.00
2018-08-03T04:19:22.645Z,952.00
2018-08-03T04:20:22.673Z,992.00
2018-08-03T04:21:22.697Z,1032.00
2018-08-03T04:22:22.727Z,1072.00
2018-08-03T04:23:22.750Z,1116.00
2018-08-03T04:24:22.777Z,1160.00
2018-08-03T04:25:22.808Z,1204.00
2018-08-03T04:26:22.832Z,1244.00
2018-08-03T04:27:22.858Z,1288.00
2018-08-03T04:28:22.886Z,1332.00
2018-08-03T04:29:22.913Z,1376.00
2018-08-03T04:30:22.940Z,1420.00
2018-08-03T04:31:22.969Z,1464.00
2018-08-03T04:32:22.994Z,1508.00
2018-08-03T04:33:23.026Z,1552.00
2018-08-03T04:34:23.051Z,1600.00
2018-08-03T04:35:23.078Z,1644.00
2018-08-03T04:36:23.105Z,1688.00
2018-08-03T04:37:23.129Z,1732.00
2018-08-03T04:38:23.157Z,1780.00
2018-08-03T04:39:23.184Z,1824.00
2018-08-03T04:40:23.211Z,1868.00
2018-08-03T04:41:23.239Z,1912.00
2018-08-03T04:42:23.344Z,1952.00
2018-08-03T04:43:23.290Z,2000.00
2018-08-03T04:44:23.420Z,2040.00
2018-08-03T04:45:23.346Z,2084.00
2018-08-03T04:46:23.377Z,2124.00
2018-08-03T04:47:23.400Z,2168.00
2018-08-03T04:48:23.426Z,2208.00
2018-08-03T04:49:23.455Z,2260.00
2018-08-03T04:50:23.483Z,2304.00
2018-08-03T04:51:23.507Z,2352.00
2018-08-03T04:52:23.537Z,2400.00
2018-08-03T04:53:23.561Z,2448.00
2018-08-03T04:54:23.592Z,2492.00
2018-08-03T04:55:23.615Z,2540.00
2018-08-03T04:56:23.645Z,2588.00
2018-08-03T04:57:23.670Z,2636.00
2018-08-03T04:58:23.700Z,2680.00
2018-08-03T04:59:23.724Z,2728.00
2018-08-03T05:00:23.756Z,2784.00
2018-08-03T05:01:23.781Z,2832.00
2018-08-03T05:02:23.807Z,2888.00
2018-08-03T05:03:23.835Z,2936.00
2018-08-03T05:04:23.859Z,2992.00
2018-08-03T05:05:23.889Z,3044.00
2018-08-03T05:06:23.915Z,3092.00
2018-08-03T05:07:23.941Z,3140.00
2018-08-03T05:08:23.968Z,3188.00
2018-08-03T05:09:23.999Z,3236.00
2018-08-03T05:10:24.027Z,3288.00
2018-08-03T05:11:24.053Z,3336.00
2018-08-03T05:12:24.077Z,3388.00
2018-08-03T05:13:24.105Z,3440.00
2018-08-03T05:14:24.134Z,3496.00
2018-08-03T05:15:24.172Z,3560.00
2018-08-03T05:16:24.190Z,3708.00
2018-08-03T05:17:24.217Z,3792.00
2018-08-03T05:18:24.244Z,3712.00
2018-08-03T05:19:24.269Z,3760.00
2018-08-03T05:20:24.296Z,3816.00
2018-08-03T05:21:24.336Z,3868.00
2018-08-03T05:22:24.352Z,3920.00
2018-08-03T05:23:24.383Z,3972.00
2018-08-03T05:24:24.408Z,4020.00
2018-08-03T05:25:24.433Z,4076.00
2018-08-03T05:26:24.466Z,4132.00
2018-08-03T05:27:24.488Z,4200.00
2018-08-03T05:28:24.519Z,4812.00
2018-08-03T05:29:24.545Z,5844.00
2018-08-03T05:30:24.633Z,6672.00
2018-08-03T05:31:24.600Z,6912.00
2018-08-03T05:32:24.628Z,7168.00
2018-08-03T05:33:24.653Z,7548.00
2018-08-03T05:34:24.683Z,7972.00
2018-08-03T05:35:24.761Z,8580.00
2018-08-03T05:36:24.808Z,9948.00
2018-08-03T05:37:24.767Z,11400.00
2018-08-03T05:38:24.793Z,13212.00
2018-08-03T05:39:24.820Z,13832.00
2018-08-03T05:40:24.848Z,13368.00
2018-08-03T05:41:24.874Z,13444.00
2018-08-03T05:42:24.920Z,15088.00
2018-08-03T05:43:24.931Z,17024.00
2018-08-03T05:44:24.959Z,18112.00
2018-08-03T05:45:24.990Z,21600.00
2018-08-03T05:46:25.015Z,25856.00
2018-08-03T05:47:25.045Z,28096.00
2018-08-03T05:48:25.072Z,30336.00
2018-08-03T05:49:25.105Z,34848.00
2018-08-03T05:50:25.129Z,35200.00
2018-08-03T05:51:25.156Z,30464.00
2018-08-03T05:52:25.249Z,26176.00
2018-08-03T05:53:25.216Z,24768.00
2018-08-03T05:54:25.241Z,24896.00
2018-08-03T05:55:25.271Z,23648.00
2018-08-03T05:56:25.301Z,21632.00
2018-08-03T05:57:25.327Z,21664.00
2018-08-03T05:58:25.360Z,22464.00
2018-08-03T05:59:25.384Z,19744.00
2018-08-03T06:00:25.413Z,17920.00
2018-08-03T06:01:25.445Z,19488.00
2018-08-03T06:02:25.474Z,21344.00
2018-08-03T06:03:25.522Z,19776.00
2018-08-03T06:04:25.532Z,17696.00
2018-08-03T06:05:28.184Z,18432.00
2018-08-03T06:06:25.592Z,18784.00
2018-08-03T06:07:25.624Z,19104.00
2018-08-03T06:08:25.687Z,18528.00
2018-08-03T06:09:25.696Z,17248.00
2018-08-03T06:10:25.737Z,16736.00
2018-08-03T06:11:25.761Z,16896.00
2018-08-03T06:12:25.799Z,17536.00
2018-08-03T06:13:25.833Z,18592.00
2018-08-03T06:14:25.868Z,17760.00
2018-08-03T06:15:25.898Z,16448.00
2018-08-03T06:16:25.936Z,16928.00
2018-08-03T06:17:25.969Z,17984.00
2018-08-03T06:18:26.007Z,18528.00
2018-08-03T06:19:26.041Z,17984.00
2018-08-03T06:20:26.076Z,17792.00
2018-08-03T06:21:26.111Z,17984.00
2018-08-03T06:22:26.143Z,17984.00
2018-08-03T06:23:26.178Z,17664.00
2018-08-03T06:24:26.216Z,18048.00
2018-08-03T06:25:26.257Z,19520.00
2018-08-03T06:26:26.286Z,20928.00
2018-08-03T06:27:26.320Z,19616.00
2018-08-03T06:28:26.387Z,18144.00
2018-08-03T06:29:26.421Z,19872.00
2018-08-03T06:30:26.428Z,21376.00
2018-08-03T06:31:26.465Z,22656.00
2018-08-03T06:32:26.499Z,23200.00
2018-08-03T06:33:26.538Z,22560.00
2018-08-03T06:34:26.574Z,22848.00
2018-08-03T06:35:26.607Z,23712.00
2018-08-03T06:36:26.644Z,26848.00
2018-08-03T06:37:26.680Z,29184.00
2018-08-03T06:38:26.717Z,29568.00
2018-08-03T06:39:26.754Z,35680.00
2018-08-03T06:40:26.796Z,43072.00
2018-08-03T06:41:26.829Z,39296.00
2018-08-03T06:42:26.861Z,29440.00
2018-08-03T06:43:26.903Z,25120.00
2018-08-03T06:44:26.937Z,22624.00
2018-08-03T06:45:26.976Z,20832.00
2018-08-03T06:46:27.011Z,19520.00
2018-08-03T06:47:27.049Z,18688.00
2018-08-03T06:48:27.125Z,18144.00
2018-08-03T06:49:27.122Z,17696.00
2018-08-03T06:50:27.159Z,17376.00
2018-08-03T06:51:27.196Z,17152.00
2018-08-03T06:52:27.234Z,16892.00
2018-08-03T06:53:27.271Z,16896.00
2018-08-03T06:54:27.309Z,17004.00
2018-08-03T06:55:27.346Z,17184.00
2018-08-03T06:56:27.388Z,17728.00
2018-08-03T06:57:27.444Z,20128.00
2018-08-03T06:58:27.460Z,27968.00
2018-08-03T06:59:27.499Z,35872.00
2018-08-03T07:00:27.551Z,39136.00
2018-08-03T07:01:27.576Z,40896.00
2018-08-03T07:02:27.610Z,42368.00
2018-08-03T07:03:27.647Z,42464.00
2018-08-03T07:04:27.720Z,43360.00
2018-08-03T07:05:27.726Z,44192.00
2018-08-03T07:06:27.763Z,46176.00
2018-08-03T07:07:27.799Z,47424.00
2018-08-03T07:08:27.877Z,48480.00
2018-08-03T07:09:27.875Z,48640.00
2018-08-03T07:10:27.920Z,47808.00
2018-08-03T07:11:27.953Z,47328.00
2018-08-03T07:12:27.994Z,46560.00
2018-08-03T07:13:28.035Z,49984.00
2018-08-03T07:14:28.080Z,51072.00
2018-08-03T07:15:31.741Z,51104.00
2018-08-03T07:16:28.143Z,52000.00
2018-08-03T07:17:28.183Z,53152.00
2018-08-03T07:18:28.217Z,54016.00
2018-08-03T07:19:28.262Z,54688.00
2018-08-03T07:20:28.419Z,55328.00
2018-08-03T07:21:28.336Z,55712.00
2018-08-03T07:22:28.374Z,55488.00
2018-08-03T07:23:28.412Z,56320.00
2018-08-03T07:24:28.452Z,56896.00
2018-08-03T07:25:28.486Z,56544.00
2018-08-03T07:26:29.337Z,57664.00
2018-08-03T07:27:28.568Z,57728.00
2018-08-03T07:28:31.281Z,56320.00
2018-08-03T07:29:28.633Z,55712.00
2018-08-03T07:30:28.672Z,55488.00
2018-08-03T07:32:32.380Z,58592.00
2018-08-03T07:33:29.388Z,58816.00
2018-08-03T07:34:28.821Z,57088.00
2018-08-03T07:35:28.851Z,57056.00
2018-08-03T07:36:28.888Z,58400.00
2018-08-03T07:37:29.024Z,57856.00
2018-08-03T07:38:28.959Z,58592.00
2018-08-03T07:39:28.992Z,59584.00
2018-08-03T07:40:29.027Z,60032.00
2018-08-03T07:41:29.060Z,59488.00
2018-08-03T07:42:29.096Z,59232.00
2018-08-03T07:43:29.196Z,59712.00
2018-08-03T07:44:29.175Z,62080.00
2018-08-03T07:45:29.199Z,61024.00
2018-08-03T07:46:29.237Z,58624.00
2018-08-03T07:47:29.273Z,59008.00
2018-08-03T07:50:29.381Z,62016.00
2018-08-03T07:51:29.421Z,61792.00
2018-08-03T07:52:29.470Z,60704.00
2018-08-03T07:53:29.500Z,59552.00
2018-08-03T07:55:37.973Z,61504.00
2018-08-03T07:56:37.204Z,62208.00
2018-08-03T08:01:37.422Z,63296.00
2018-08-03T08:02:40.074Z,63296.00
2018-08-03T08:03:37.486Z,62400.00
2018-08-03T08:05:41.597Z,63520.00
2018-08-03T08:07:33.611Z,65120.00
2018-08-03T08:08:34.320Z,63648.00
2018-08-03T08:09:30.300Z,65056.00
2018-08-03T08:10:30.297Z,64768.00
2018-08-03T08:11:30.323Z,62752.00
2018-08-03T08:12:30.360Z,63552.00
2018-08-03T08:13:30.398Z,63232.00
2018-08-03T08:14:30.434Z,63744.00
2018-08-03T08:15:30.478Z,65856.00
2018-08-03T08:16:30.506Z,65536.00
2018-08-03T08:17:30.539Z,66880.00
2018-08-03T08:18:30.581Z,67808.00
2018-08-03T08:19:30.611Z,67776.00
2018-08-03T08:20:30.651Z,69056.00
2018-08-03T08:21:30.689Z,68896.00
2018-08-03T08:22:30.721Z,69216.00
2018-08-03T08:23:30.757Z,67328.00
2018-08-03T08:24:30.797Z,65536.00
2018-08-03T08:25:30.832Z,64960.00
2018-08-03T08:26:30.869Z,68576.00
2018-08-03T08:27:30.904Z,70656.00
2018-08-03T08:28:30.939Z,65600.00
2018-08-03T08:29:30.979Z,64704.00
2018-08-03T08:30:31.015Z,67040.00
2018-08-03T08:31:31.062Z,67616.00
2018-08-03T08:32:31.088Z,66912.00
2018-08-03T08:33:31.123Z,68288.00
2018-08-03T08:34:31.162Z,69056.00
2018-08-03T08:35:31.198Z,68672.00
2018-08-03T08:36:31.235Z,70048.00
2018-08-03T08:37:31.272Z,69504.00
2018-08-03T08:38:31.306Z,67264.00
2018-08-03T08:39:31.341Z,67744.00
2018-08-03T08:40:31.379Z,68768.00
2018-08-03T08:41:31.415Z,69312.00
2018-08-03T08:42:31.454Z,70144.00
2018-08-03T08:43:31.567Z,70656.00
2018-08-03T08:44:31.527Z,70976.00
2018-08-03T08:45:31.563Z,71648.00
2018-08-03T08:46:31.629Z,71040.00
2018-08-03T08:47:31.636Z,70912.00
2018-08-03T08:48:31.676Z,69440.00
2018-08-03T08:49:31.712Z,69344.00
2018-08-03T08:50:31.751Z,68128.00
2018-08-03T08:51:31.788Z,68672.00
2018-08-03T08:52:31.822Z,69440.00
2018-08-03T08:53:31.859Z,70176.00
2018-08-03T08:54:31.898Z,71136.00
2018-08-03T08:55:31.935Z,71744.00
2018-08-03T08:56:31.971Z,72032.00
2018-08-03T08:57:32.012Z,71520.00
2018-08-03T08:58:32.049Z,72416.00
2018-08-03T08:59:32.111Z,73056.00
2018-08-03T09:00:32.123Z,73024.00
2018-08-03T09:01:32.161Z,74016.00
2018-08-03T09:02:32.199Z,74272.00
2018-08-03T09:03:32.234Z,72704.00
2018-08-03T09:04:32.274Z,71104.00
2018-08-03T09:05:32.312Z,70784.00
2018-08-03T09:06:32.351Z,70976.00
2018-08-03T09:07:32.492Z,72064.00
2018-08-03T09:08:32.422Z,72960.00
2018-08-03T09:09:32.459Z,74688.00
2018-08-03T09:10:32.497Z,75584.00
2018-08-03T09:11:32.534Z,75744.00
2018-08-03T09:12:32.574Z,75808.00
2018-08-03T09:13:32.612Z,74688.00
2018-08-03T09:14:32.651Z,74208.00
2018-08-03T09:15:32.688Z,75008.00
2018-08-03T09:16:32.726Z,75648.00
2018-08-03T09:17:32.764Z,76768.00
2018-08-03T09:18:32.825Z,78560.00
2018-08-03T09:19:32.836Z,77856.00
2018-08-03T09:20:32.877Z,77248.00
2018-08-03T09:21:32.913Z,78240.00
2018-08-03T09:22:32.951Z,79040.00
2018-08-03T09:23:32.990Z,79744.00
2018-08-03T09:24:33.076Z,79168.00
2018-08-03T09:25:33.068Z,78528.00
2018-08-03T09:26:33.111Z,75488.00
2018-08-03T09:27:33.143Z,75136.00
2018-08-03T09:28:33.212Z,74528.00
2018-08-03T09:29:33.219Z,75744.00
2018-08-03T09:30:33.258Z,75584.00
2018-08-03T09:31:33.292Z,76800.00
2018-08-03T09:32:33.333Z,78208.00
2018-08-03T09:33:33.368Z,76096.00
2018-08-03T09:34:33.408Z,75232.00
2018-08-03T09:35:33.447Z,75456.00
2018-08-03T09:36:33.543Z,74976.00
2018-08-03T09:37:33.520Z,74912.00
2018-08-03T09:38:33.559Z,75136.00
2018-08-03T09:39:33.596Z,74784.00
2018-08-03T09:40:33.635Z,73952.00
2018-08-03T09:41:33.673Z,76416.00
2018-08-03T09:42:33.711Z,77600.00
2018-08-03T09:43:33.749Z,78464.00
2018-08-03T09:44:33.789Z,77792.00
2018-08-03T09:45:33.830Z,76000.00
2018-08-03T09:46:33.864Z,78112.00
2018-08-03T09:47:33.905Z,77568.00
2018-08-03T09:48:33.941Z,77760.00
2018-08-03T09:49:33.981Z,79168.00
2018-08-03T09:50:34.020Z,79360.00
2018-08-03T09:51:34.058Z,80672.00
2018-08-03T09:52:34.094Z,80224.00
2018-08-03T09:53:34.135Z,79744.00
2018-08-03T09:54:34.243Z,78784.00
2018-08-03T09:55:34.212Z,76320.00
2018-08-03T09:56:34.249Z,75200.00
2018-08-03T09:57:34.289Z,76576.00
2018-08-03T09:58:34.325Z,76672.00
2018-08-03T09:59:34.363Z,77984.00
2018-08-03T10:00:34.405Z,79264.00
2018-08-03T10:01:34.440Z,79840.00
2018-08-03T10:02:34.481Z,80224.00
2018-08-03T10:03:34.518Z,78976.00
2018-08-03T10:04:34.560Z,79872.00
2018-08-03T10:05:34.596Z,80800.00
2018-08-03T10:06:34.635Z,78816.00
2018-08-03T10:07:34.677Z,79136.00
2018-08-03T10:08:34.709Z,80288.00
2018-08-03T10:09:34.749Z,80192.00
2018-08-03T10:10:34.788Z,81056.00
2018-08-03T10:11:34.827Z,80448.00
2018-08-03T10:12:34.983Z,79616.00
2018-08-03T10:13:34.904Z,78400.00
2018-08-03T10:14:34.944Z,79744.00
2018-08-03T10:15:35.037Z,79616.00
2018-08-03T10:16:35.022Z,76640.00
2018-08-03T10:17:35.059Z,74656.00
2018-08-03T10:18:35.099Z,74432.00
2018-08-03T10:19:35.137Z,73152.00
2018-08-03T10:20:35.174Z,70112.00
2018-08-03T10:21:35.213Z,70208.00
2018-08-03T10:22:35.251Z,71968.00
2018-08-03T10:23:35.289Z,72704.00
2018-08-03T10:24:35.330Z,71648.00
2018-08-03T10:25:35.366Z,73312.00
2018-08-03T10:26:35.409Z,72608.00
2018-08-03T10:27:35.446Z,70720.00
2018-08-03T10:28:35.482Z,72000.00
2018-08-03T10:29:35.559Z,71552.00
2018-08-03T10:30:35.565Z,71904.00
2018-08-03T10:31:35.597Z,73440.00
2018-08-03T10:32:35.639Z,71200.00
2018-08-03T10:33:35.677Z,71744.00
2018-08-03T10:34:35.719Z,73184.00
2018-08-03T10:35:35.754Z,72896.00
2018-08-03T10:36:35.793Z,71264.00
2018-08-03T10:37:35.831Z,72864.00
2018-08-03T10:38:35.870Z,73984.00
2018-08-03T10:39:35.905Z,75040.00
2018-08-03T10:40:35.945Z,73728.00
2018-08-03T10:41:35.984Z,72608.00
2018-08-03T10:42:36.024Z,72544.00
2018-08-03T10:43:36.062Z,73376.00
2018-08-03T10:44:36.100Z,73472.00
2018-08-03T10:45:36.139Z,73792.00
2018-08-03T10:46:36.279Z,75200.00
2018-08-03T10:47:36.213Z,75648.00
2018-08-03T10:48:36.270Z,74208.00
2018-08-03T10:49:36.290Z,72352.00
2018-08-03T10:50:36.330Z,72000.00
2018-08-03T10:51:36.370Z,72288.00
2018-08-03T10:52:36.408Z,73376.00
2018-08-03T10:53:36.465Z,72896.00
2018-08-03T10:54:36.490Z,72160.00
2018-08-03T10:55:36.524Z,72896.00
2018-08-03T10:56:36.562Z,69600.00
2018-08-03T10:57:36.601Z,66816.00
2018-08-03T10:58:36.639Z,68192.00
2018-08-03T10:59:36.676Z,67264.00
2018-08-03T11:00:36.719Z,73248.00
2018-08-03T11:01:36.780Z,73984.00
2018-08-03T11:02:36.794Z,71488.00
2018-08-03T11:03:36.834Z,70944.00
2018-08-03T11:04:36.871Z,48288.00
2018-08-03T11:05:36.912Z,40672.00
2018-08-03T11:06:36.950Z,31712.00
2018-08-03T11:07:36.995Z,61952.00
2018-08-03T11:08:37.029Z,70816.00
2018-08-03T11:09:37.067Z,66752.00
2018-08-03T11:10:37.105Z,16364.00
2018-08-03T11:11:37.148Z,15936.00
2018-08-03T11:12:37.181Z,16120.00
2018-08-03T11:13:37.284Z,16916.00
2018-08-03T11:14:37.263Z,41440.00
2018-08-03T11:15:37.314Z,57120.00
2018-08-03T11:16:37.336Z,68768.00
2018-08-03T11:17:37.378Z,70272.00
2018-08-03T11:18:37.415Z,71904.00
2018-08-03T11:19:37.451Z,72192.00
2018-08-03T11:20:37.492Z,73920.00
2018-08-03T11:21:37.526Z,72128.00
2018-08-03T11:22:37.568Z,71040.00
2018-08-03T11:23:37.603Z,69792.00
2018-08-03T11:24:37.643Z,70880.00
2018-08-03T11:25:37.681Z,71584.00
2018-08-03T11:26:37.720Z,72288.00
2018-08-03T11:27:37.757Z,70368.00
2018-08-03T11:28:37.796Z,68800.00
2018-08-03T11:29:37.888Z,70944.00
2018-08-03T11:30:37.872Z,71136.00
2018-08-03T11:31:37.907Z,72128.00
2018-08-03T11:32:37.946Z,70432.00
2018-08-03T11:33:37.986Z,68192.00
2018-08-03T11:34:38.025Z,65248.00
2018-08-03T11:35:38.061Z,67808.00
2018-08-03T11:36:38.258Z,72608.00
2018-08-03T11:37:38.142Z,74944.00
2018-08-03T11:38:38.181Z,75872.00
2018-08-03T11:39:38.215Z,81440.00
2018-08-03T11:40:38.258Z,122016.00
2018-08-03T11:41:38.295Z,133408.00
2018-08-03T11:42:38.336Z,87264.00
2018-08-03T11:43:38.371Z,24768.00
2018-08-03T11:44:38.410Z,23168.00
2018-08-03T11:45:38.449Z,22720.00
2018-08-03T11:46:38.488Z,22240.00
2018-08-03T11:47:38.530Z,21792.00
2018-08-03T11:48:38.567Z,21472.00
2018-08-03T11:49:38.605Z,21536.00
2018-08-03T11:50:38.649Z,21664.00
2018-08-03T11:51:38.683Z,21696.00
2018-08-03T11:52:38.725Z,21504.00
2018-08-03T11:53:38.763Z,21280.00
2018-08-03T11:54:38.804Z,21024.00
2018-08-03T11:55:38.840Z,20896.00
2018-08-03T11:56:38.882Z,20800.00
2018-08-03T11:57:38.921Z,20672.00
2018-08-03T11:58:38.960Z,20640.00
2018-08-03T11:59:38.998Z,20800.00
2018-08-03T12:00:39.040Z,20832.00
2018-08-03T12:01:39.075Z,20800.00
2018-08-03T12:02:39.114Z,20992.00
2018-08-03T12:03:39.152Z,20992.00
2018-08-03T12:04:39.192Z,21120.00
2018-08-03T12:05:39.232Z,21088.00
2018-08-03T12:06:39.414Z,21216.00
2018-08-03T12:07:39.310Z,21472.00
2018-08-03T12:08:39.348Z,21504.00
2018-08-03T12:09:39.390Z,21312.00
2018-08-03T12:10:39.427Z,21184.00
2018-08-03T12:11:39.466Z,21120.00
2018-08-03T12:12:39.508Z,21344.00
2018-08-03T12:13:39.544Z,21568.00
2018-08-03T12:14:39.583Z,21376.00
2018-08-03T12:15:39.623Z,21152.00
2018-08-03T12:16:39.663Z,21120.00
2018-08-03T12:17:39.700Z,20928.00
2018-08-03T12:18:39.742Z,20800.00
2018-08-03T12:19:39.780Z,20608.00
2018-08-03T12:20:39.819Z,20288.00
2018-08-03T12:21:39.855Z,19552.00
2018-08-03T12:22:39.896Z,19040.00
2018-08-03T12:23:39.953Z,19648.00
2018-08-03T12:24:39.971Z,19584.00